Terminal Aerodrome Forecast
Issued by NWS Cleveland, OH

Home | Current Version | Previous Version | Graphics & Text | Print | Product List | Glossary On
Versions: 1 2 3 4 5 6 7 8 9 10 11 12 13 14 15 16 17 18 19
887
FTUS41 KCLE 140533
TAFTOL
TAF
KTOL 140533Z 1406/1506 VRB03KT P6SM OVC050
     FM141000 00000KT P6SM SCT110
     FM141700 21006KT P6SM SCT100
     FM142100 18007KT P6SM BKN060=

USA.gov is the U.S. government's official web portal to all federal, state and local government web resources and services.